Orlando, Florida
Traffic Map
Current Weather Conditions
Orlando, Florida
Clear
Clear
25°
Feels Like: 26°
Wind Chill: 25° Ceiling: Unl
Heat Index: 26° Visibility: 10mi
Dew Point: 23° Wind: 0mph
Humidity: 90% Direction: ° ()
Pressure: 29.98in Gusts: 0mph
Raw Report DataKORL 280153Z 00000KT 10SM CLR 25/23 A2998 RMK AO2 SLP153 T02500233
Traffic Incident Summary
Active as of:
Severity:
Category:
InformationThere was an issue retrieving the traffic information for this location. Please try a different location or try again shortly.
Advertisements
Track Severe Weather on mobile